Station: Mount Bundey South (Defence)  

  Atmospheric Gas Attenuation - ITU Rec 676-11   ----------------- dB/100km -----------------
Date Time Temp RH % AH g/m3 Dew Point Wind Direction Speed kph Gust kph Barometer mB Rainfall Since 9am 24GHz 47GHz 76GHz 122GHz 134GHz 241GHz
07/05 10:10 26.7 38 9.62 11.2 13 19 1016 21.1 24.0 37.6 98.6 95.4 329.4
07/05 10:00 26.1 38 9.3 10.7 17 28 1016 20.5 23.7 36.7 96.3 92.4 318.9
07/05 09:50 26 41 9.98 11.7 9 13 1015.9 21.9 24.7 39.2 102.9 100.4 347.0
07/05 09:40 25.8 40 9.63 11.5 17 20 1015.9 21.2 24.2 38.0 99.8 96.6 333.5
07/05 09:30 25.3 42 9.83 11.5 13 28 1015.9 21.6 24.7 38.9 102.3 99.5 343.8
07/05 09:20 24.8 44 10.02 11.7 11 17 1015.8 22.0 25.1 39.9 104.8 102.4 353.8
07/05 09:10 24.6 43 9.68 11.5 17 20 1015.8 21.3 24.6 38.7 101.7 98.6 340.5
07/05 09:00 24.3 44 9.74 11.3 13 26 1015.7 21.5 24.8 39.1 102.7 99.7 344.2
07/05 08:50 24.3 45 9.96 11.9 15 22 1015.7 21.9 25.1 39.9 104.8 102.3 353.5
07/05 08:40 23.8 48 10.32 12.4 9 11 1015.7 22.7 25.8 41.5 109.0 107.3 371.0
07/05 08:30 23.4 50 10.51 12.4 7 11 1015.6 23.1 26.2 42.4 111.5 110.2 381.1
07/05 08:20 22.9 52 10.63 12.5 9 13 1015.6 23.4 26.5 43.1 113.4 112.4 388.7
07/05 08:10 22.5 54 10.79 12.7 7 11 1015.4 23.8 26.9 43.9 115.6 115.0 397.7
07/05 08:00 22.1 56 10.93 12.9 4 9 1015.3 24.1 27.2 44.7 117.6 117.4 405.9
07/05 07:50 21.6 57 10.81 12.9 4 4 1015.2 23.9 27.2 44.5 117.1 116.6 403.0
07/05 07:40 21 60 10.99 12.9 2 4 1015 24.3 27.6 45.5 119.8 119.8 414.2
07/05 07:30 20.6 62 11.1 13.1 4 7 1014.9 24.5 27.9 46.2 121.6 121.8 421.3
07/05 07:20 20.1 63 10.95 13 6 6 1014.8 24.3 27.8 45.9 120.8 120.6 417.0
07/05 07:10 19.9 64 10.99 12.9 7 9 1014.7 24.3 28.0 46.2 121.5 121.5 419.9
07/05 07:00 19.7 65 11.04 12.9 7 15 1014.5 24.5 28.1 46.5 122.3 122.4 423.2
07/05 06:50 19.6 67 11.31 13.3 7 11 1014.4 25.0 28.6 47.6 125.4 126.2 436.3
07/05 06:40 19.6 67 11.31 13.3 6 7 1014.4 25.0 28.6 47.6 125.4 126.2 436.3
07/05 06:30 19.7 67 11.38 13.4 7 13 1014.2 25.2 28.7 47.8 126.0 126.9 439.0
07/05 06:15 19.8 68 11.61 13.7 4 6 1014 25.7 29.0 48.7 128.3 129.8 449.1
07/05 06:10 19.8 68 11.61 13.7 6 7 1014 25.7 29.0 48.7 128.3 129.8 449.1
07/05 06:00 19.7 68 11.55 13.6 4 9 1014 25.6 28.9 48.5 127.8 129.2 446.9
07/05 05:50 19.9 67 11.51 13.6 6 9 1013.9 25.5 28.8 48.2 127.0 128.3 443.8
07/05 05:40 20.1 66 11.47 13.7 7 9 1013.7 25.4 28.7 47.9 126.2 127.4 440.8
07/05 05:30 20.1 66 11.47 13.6 6 9 1013.5 25.4 28.6 47.9 126.2 127.4 440.7
07/05 05:20 20.4 65 11.5 13.6 6 7 1013.5 25.4 28.6 47.9 126.1 127.3 440.4
07/05 05:10 20.7 64 11.52 13.6 7 9 1013.5 25.4 28.5 47.8 125.8 127.1 439.7
07/05 04:59 20.8 64 11.59 13.7 9 11 1013.5 25.6 28.6 48.0 126.4 127.8 442.3
07/05 04:50 21 63 11.54 13.7 9 11 1013.5 25.5 28.5 47.7 125.5 126.8 438.9
07/05 04:40 20.9 64 11.65 13.8 6 7 1013.5 25.7 28.7 48.2 126.9 128.5 444.6
07/05 04:27 20.9 64 11.65 14 6 11 1013.6 25.7 28.7 48.2 126.9 128.5 444.6
07/05 04:20 21 64 11.72 14.1 6 6 1013.6 25.8 28.8 48.4 127.5 129.2 447.3
07/05 04:06 21.1 64 11.79 14.2 6 7 1013.6 26.0 28.8 48.6 128.1 130.0 450.0
07/05 04:00 21.2 65 12.04 14.4 6 13 1013.6 26.5 29.2 49.6 130.6 133.2 461.0
07/05 03:50 21.2 64 11.86 14.1 7 13 1013.4 26.1 28.9 48.8 128.6 130.8 452.6
07/05 03:40 21.1 64 11.79 14.2 11 13 1013.4 26.0 28.8 48.6 128.1 130.0 449.9
07/05 03:30 21.1 67 12.34 14.7 6 11 1013.4 27.1 29.7 50.9 134.1 137.4 475.7
07/05 03:20 21.1 67 12.34 14.7 6 6 1013.4 27.1 29.7 50.9 134.1 137.4 475.7
07/05 03:10 21.2 67 12.42 14.8 4 7 1013.5 27.3 29.9 51.1 134.8 138.3 478.9
07/05 03:00 21.3 67 12.49 14.9 6 9 1013.5 27.4 29.9 51.4 135.4 139.1 481.6
07/05 02:50 21.1 67 12.34 14.9 6 7 1013.6 27.1 29.8 50.9 134.1 137.4 475.8
07/05 02:40 21.4 67 12.56 15 6 7 1013.6 27.6 30.0 51.6 136.0 139.8 484.3
07/05 02:30 21.6 67 12.71 15.2 6 9 1013.7 27.9 30.2 52.1 137.3 141.5 490.2
07/05 02:20 21.8 65 12.47 15.1 6 11 1013.7 27.4 29.7 51.0 134.3 137.9 477.6
07/05 02:10 22.1 65 12.69 15.2 7 13 1013.7 27.8 30.0 51.7 136.2 140.3 486.2
07/05 02:00 22.3 64 12.64 15.2 7 17 1013.7 27.7 29.8 51.3 135.3 139.3 482.6
07/05 01:50 22.3 66 13.03 15.6 7 9 1013.7 28.5 30.5 52.9 139.6 144.6 501.0
07/05 01:40 21.8 68 13.05 15.8 7 13 1013.7 28.6 30.7 53.4 140.7 145.8 505.2
07/05 01:30 21.8 69 13.24 15.9 6 11 1013.7 29.0 31.0 54.2 142.9 148.4 514.3
07/05 01:20 21.7 70 13.35 16 7 9 1013.9 29.2 31.3 54.7 144.3 150.1 520.3
07/05 01:10 21.7 71 13.54 16.2 6 7 1013.9 29.6 31.6 55.5 146.4 152.8 529.5
07/05 01:00 21 75 13.74 16.4 4 9 1014 30.1 32.2 56.9 150.1 157.0 544.2
07/05 00:50 20.3 82 14.42 17.1 4 6 1014 31.6 33.7 60.4 159.4 168.3 583.5
07/05 00:40 20.4 80 14.15 16.8 0 0 1014 31.0 33.1 59.1 156.0 164.2 569.0
07/05 00:30 20.7 78 14.04 16.7 0 2 1014.2 30.8 32.8 58.4 154.2 162.0 561.4
07/05 00:20 20.7 78 14.04 16.7 2 4 1014.2 30.8 32.8 58.4 154.2 162.0 561.4
07/05 00:10 21 79 14.47 17.2 0 0 1014.3 31.7 33.5 60.1 158.6 167.5 580.8
07/05 00:00 21.4 76 14.25 17 2 4 1014.3 31.2 32.9 58.8 155.2 163.5 566.8
06/05 23:50 21.7 73 13.92 16.8 0 0 1014.4 30.4 32.3 57.2 150.8 158.2 548.3
06/05 23:40 22.4 69 13.7 16.6 0 0 1014.5 29.9 31.6 55.7 147.0 153.7 532.7
06/05 23:30 23.1 65 13.44 16.2 2 4 1014.6 29.3 30.9 54.1 142.8 148.7 515.6
06/05 23:20 23.7 61 13.05 15.9 2 4 1014.6 28.5 30.1 52.1 137.5 142.3 493.3
06/05 23:10 24.2 58 12.76 15.6 4 4 1014.5 27.8 29.4 50.6 133.5 137.6 476.8
06/05 23:00 24.5 58 12.98 15.7 4 7 1014.6 28.3 29.7 51.3 135.3 140.0 485.1
06/05 22:50 24.7 57 12.9 15.6 6 6 1014.6 28.1 29.5 50.9 134.1 138.5 480.2
06/05 22:40 24.8 56 12.75 15.4 4 4 1014.7 27.8 29.2 50.2 132.4 136.4 472.8
06/05 22:30 24.9 56 12.82 15.5 4 7 1014.7 27.9 29.3 50.4 133.0 137.2 475.4
06/05 22:20 25.2 55 12.8 15.5 6 7 1014.7 27.8 29.2 50.2 132.2 136.4 472.7
06/05 22:10 25.3 55 12.88 15.6 6 7 1014.7 28.0 29.3 50.4 132.9 137.2 475.7
06/05 22:00 25.5 53 12.55 15.2 6 9 1014.9 27.3 28.7 49.0 129.1 132.6 459.7
06/05 21:50 25.7 53 12.69 15.4 6 7 1014.8 27.6 28.8 49.4 130.3 134.1 464.8
06/05 21:40 26 50 12.17 15 7 9 1014.9 26.5 27.9 47.2 124.4 127.0 440.0
06/05 21:30 26 52 12.66 15.4 6 11 1014.9 27.5 28.7 49.1 129.5 133.2 461.7
06/05 21:20 25.6 54 12.86 15.6 4 7 1014.9 27.9 29.1 50.2 132.2 136.5 473.1
06/05 21:10 25.3 56 13.11 16.1 6 7 1014.8 28.5 29.6 51.3 135.4 140.2 486.2
06/05 21:00 24.7 61 13.81 16.7 6 7 1014.8 30.0 31.0 54.6 144.0 150.7 522.5
06/05 20:50 24.3 63 13.94 17 6 6 1014.7 30.3 31.4 55.4 146.1 153.2 531.3
06/05 20:40 23.9 68 14.71 17.6 4 6 1014.5 32.0 32.8 58.9 155.5 164.6 571.1
06/05 20:30 23.5 75 15.86 18.8 0 2 1014.4 34.4 35.0 64.2 169.7 181.9 631.3
06/05 20:20 23.6 72 15.31 18.4 0 0 1014.2 33.2 33.9 61.7 163.0 173.7 602.8
06/05 20:10 23.7 75 16.04 19 2 2 1014 34.8 35.2 64.8 171.3 184.0 638.6
06/05 20:00 23.9 70 15.14 18.1 0 0 1013.9 32.9 33.5 60.7 160.4 170.6 592.0
06/05 19:50 23.8 73 15.7 18.8 0 0 1013.7 34.1 34.5 63.2 167.1 178.8 620.5
06/05 19:40 23.9 77 16.66 19.6 0 0 1013.4 36.1 36.2 67.4 178.2 192.5 668.3
06/05 19:30 24.1 74 16.19 19.2 0 0 1013.3 35.1 35.3 65.1 172.1 185.1 642.6
06/05 19:20 24.5 72 16.11 19.1 0 0 1013.2 34.9 35.0 64.4 170.3 183.0 635.1
06/05 19:10 24.9 69 15.79 19 0 0 1013 34.2 34.2 62.7 165.6 177.4 615.8
06/05 19:00 25.2 64 14.9 17.9 0 0 1012.9 32.3 32.6 58.6 154.9 164.3 570.1
06/05 18:50 25.7 63 15.08 18.3 0 0 1012.7 32.6 32.7 59.0 155.9 165.7 575.0
06/05 18:40 26.5 64 16.02 19.1 0 0 1012.6 34.5 34.0 62.4 164.8 176.9 614.2
06/05 18:30 27.5 57 15.08 18.2 0 0 1012.5 32.5 32.0 57.7 152.3 161.8 561.7
06/05 18:20 28.6 49 13.77 17.1 0 0 1012.4 29.6 29.5 51.7 136.3 142.5 494.6
06/05 18:10 29.6 45 13.36 16.4 4 6 1012.4 28.7 28.5 49.5 130.5 135.6 470.5
06/05 18:00 30.2 42 12.88 16.2 4 6 1012.4 27.7 27.6 47.3 124.8 128.7 446.5
06/05 17:50 30.6 41 12.85 16.2 4 6 1012.3 27.6 27.5 47.0 123.8 127.7 443.0
06/05 17:40 30.9 38 12.1 15.3 6 7 1012.2 26.0 26.3 44.1 116.1 118.3 410.2

Last Refresh: 07-May-2026 10:16:24

Bureau of Meteorology